Saint-Lin, Canada
Current Conditions -  °F | °C
As of 1:00 PM on Thursday 18 Dec 2014 (Local Time) from CYMX Reporting Station
Overcast Overcast  
Wind Chill: 25°   Ceiling: 2000
Heat Index: 32°   Visibility: 15mi
Dew Point: 28°   Wind: 8mph
Humidity: 87%   Direction: 280°W
Pressure: 29.86"   Gusts: NA
Location:  45.85°N, 73.77°W
Report Text: CYMX 181800Z 28007KT 250V310 15SM BKN020 OVC050 M00/M02 A2986 RMK SC7SC1 SLP117
Loading
Personal Weather Stations






























Interactive Weather Map New forecast layout! Learn more

10-Day Weather Forecast

Advertisements
Track Severe Weather on mobile